Boeing 737-800 Аэрофлота съехал на грунт в Шереметьево

Boeing 737-8LJWL авиакомпании Аэрофлот (SU) соскользнул со взлётно-посадочной полосы аэропорта Шереметьево при выходе с неё после приземления.

Инцидент произошёл в 17:49 по московскому времени 21 января. На борту было 78 пассажиров и 7 членов экипажа; пострадавших нет.

Выполнявший рейс SU1963 из Астаны (TSE) в Москву (SVO) самолёт успешно приземлился на ВПП 24L, затормозил и готовился к повороту на рулёжную дорожку A5, когда его переднее шасси съехало с твёрдого покрытия и оказалось на грунте, в котором через полтора метра (по данным авиакомпании) и застряло.

Взлётно-посадочная полоса была покрыта сухим снегом высотой 3 мм, коэффициент торможения 0,37, горизонтальная видимость 6 000 метров, ветер западный (280 градусов) скоростью 3 м/с.

Двигатели были выключены, пассажиры и экипаж эвакуированы, самолёт отбуксировали на перрон. Предварительный осмотр авиалайнера не выявил никаких повреждений.

В связи с инцидентом аэропорт не принимал и не отправлял самолёты примерно полтора часа. Аэрофлот задержал отправление свыше 20 рейсов 21-го января, это имело последствия в виде задержек в расписании (особенно обратных рейсов) до 22 января включительно.

Показания METAR:

UUEE 211530Z 27004MPS 9999 SCT015 M10/M12 Q1008 R24C/450336 NOSIG=
UUEE 211500Z 29004MPS 7000 -SHSN BKN040CB M10/M12 Q1008 R24L/590330 R24C/450336 TEMPO 0900 +SHSN=
UUEE 211430Z 29004MPS 3600 -SHSN BKN044CB M10/M11 Q1008 R24L/590330 R24C/590330 TEMPO 0900 +SHSN=
UUEE 211400Z 30004MPS 1000 0750NE R24L/0900D R24C/0900D +SHSN SCT002 BKN019CB M09/M11 Q1008 R24L/450340 R24C/590330 TEMPO 0500 +SHSN RMK QBB060=